Time;durP1;ratioP1;P1;durP2;ratioP2;P2;SDS_P1;SDS_P2;PMS_P1;PMS_P2;Temp;Humidity;BMP_temperature;BMP_pressure;BME280_temperature;BME280_humidity;BME280_pressure;Samples;Min_cycle;Max_cycle;Signal;HPM_P1;HPM_P2
2022/06/27 00:01:17;;;;;;;2.38;1.90;;;25.50;60.20;;;;;;5012787;28;20396;-68
2022/06/27 00:03:43;;;;;;;2.13;1.90;;;25.50;60.30;;;;;;5012769;28;20423;-68
2022/06/27 00:06:09;;;;;;;3.05;1.92;;;25.50;60.30;;;;;;5011922;28;20932;-68
2022/06/27 00:08:35;;;;;;;1.90;1.75;;;25.50;60.40;;;;;;5012582;28;20400;-68
2022/06/27 00:11:01;;;;;;;2.00;1.70;;;25.50;60.30;;;;;;5012673;28;20395;-68
2022/06/27 00:13:27;;;;;;;1.80;1.70;;;25.50;60.40;;;;;;5012451;28;20408;-68
2022/06/27 00:15:53;;;;;;;2.10;1.90;;;25.50;60.40;;;;;;5012634;28;20392;-68
2022/06/27 00:18:18;;;;;;;1.70;1.60;;;25.50;60.40;;;;;;5012108;28;20753;-68
2022/06/27 00:20:44;;;;;;;2.03;1.90;;;25.40;60.30;;;;;;5012116;28;20446;-68
2022/06/27 00:23:10;;;;;;;1.93;1.70;;;25.50;60.30;;;;;;5011843;28;20400;-69
2022/06/27 00:25:35;;;;;;;1.70;1.60;;;25.50;60.30;;;;;;5012474;28;20749;-69
2022/06/27 00:28:01;;;;;;;2.00;1.80;;;25.40;60.20;;;;;;5012276;28;20456;-68
2022/06/27 00:30:27;;;;;;;1.90;1.70;;;25.40;60.20;;;;;;5011830;28;20400;-68
2022/06/27 00:32:52;;;;;;;2.00;1.80;;;25.40;60.30;;;;;;5006578;28;20402;-69
2022/06/27 00:35:18;;;;;;;3.27;1.80;;;25.40;60.30;;;;;;4981726;28;20402;-68
2022/06/27 00:37:44;;;;;;;2.58;1.65;;;25.40;60.20;;;;;;4984609;28;20798;-68
2022/06/27 00:40:10;;;;;;;2.10;1.90;;;25.40;60.30;;;;;;5000615;28;20397;-68
2022/06/27 00:42:35;;;;;;;2.00;1.80;;;25.40;60.30;;;;;;4983466;28;20767;-68
2022/06/27 00:45:01;;;;;;;1.92;1.70;;;25.40;60.30;;;;;;5002466;28;20424;-68
2022/06/27 00:47:27;;;;;;;1.70;1.60;;;25.40;60.30;;;;;;5000467;28;20432;-68
2022/06/27 00:49:53;;;;;;;1.77;1.67;;;25.40;60.20;;;;;;4982376;28;20407;-67
2022/06/27 00:52:19;;;;;;;2.15;1.75;;;25.40;60.20;;;;;;5001357;28;20401;-68
2022/06/27 00:54:46;;;;;;;1.93;1.73;;;25.40;60.10;;;;;;5003021;28;20857;-68
2022/06/27 00:57:13;;;;;;;1.70;1.60;;;25.40;60.20;;;;;;5001217;28;20453;-68
2022/06/27 00:59:39;;;;;;;1.70;1.60;;;25.40;60.20;;;;;;5009243;28;20399;-68
2022/06/27 01:02:06;;;;;;;2.20;1.60;;;25.40;60.20;;;;;;5011900;28;20497;-66
2022/06/27 01:04:32;;;;;;;2.40;1.70;;;25.40;60.10;;;;;;5011786;28;20415;-67
2022/06/27 01:06:58;;;;;;;2.40;1.80;;;25.40;60.20;;;;;;5011430;28;20921;-68
2022/06/27 01:09:24;;;;;;;2.30;1.70;;;25.40;60.20;;;;;;5011826;28;20749;-68
2022/06/27 01:11:51;;;;;;;2.25;1.63;;;25.40;60.20;;;;;;4994083;28;20425;-68
2022/06/27 01:14:18;;;;;;;2.00;1.70;;;25.40;60.10;;;;;;4993792;28;20403;-68
2022/06/27 01:16:44;;;;;;;1.70;1.60;;;25.40;60.20;;;;;;5011960;28;20403;-67
2022/06/27 01:19:12;;;;;;;2.00;1.63;;;25.30;60.00;;;;;;5011710;28;20814;-68
2022/06/27 01:21:43;;;;;;;1.80;1.70;;;25.40;60.10;;;;;;5011891;28;20433;-68
2022/06/27 01:24:09;;;;;;;1.80;1.50;;;25.40;60.20;;;;;;5011551;28;20385;-68
2022/06/27 01:26:35;;;;;;;2.03;1.80;;;25.30;60.10;;;;;;4993767;28;20544;-68
2022/06/27 01:29:01;;;;;;;2.50;1.80;;;25.40;60.20;;;;;;4993998;28;20397;-68
2022/06/27 01:31:27;;;;;;;2.10;1.70;;;25.30;60.10;;;;;;4994054;28;20907;-68
2022/06/27 01:33:53;;;;;;;2.00;1.63;;;25.30;60.20;;;;;;5011591;28;20404;-67
2022/06/27 01:39:05;;;;;;;1.80;1.70;;;25.30;60.20;;;;;;5013502;28;20872;-68
2022/06/27 01:41:30;;;;;;;1.63;1.50;;;25.30;60.20;;;;;;4997905;28;20397;-68
2022/06/27 01:43:56;;;;;;;2.30;1.67;;;25.30;60.20;;;;;;5015538;28;20399;-68
2022/06/27 01:46:22;;;;;;;1.77;1.67;;;25.40;60.20;;;;;;4997265;28;20896;-68
2022/06/27 01:48:48;;;;;;;2.00;1.55;;;25.30;60.20;;;;;;5015499;28;20403;-67
2022/06/27 01:51:14;;;;;;;1.70;1.50;;;25.30;60.20;;;;;;5015385;28;20395;-68
2022/06/27 01:53:40;;;;;;;2.00;1.80;;;25.30;60.20;;;;;;4997589;28;20396;-68
2022/06/27 01:56:06;;;;;;;2.00;1.60;;;25.30;60.10;;;;;;5015298;28;20463;-67
2022/06/27 01:58:33;;;;;;;2.60;1.70;;;25.30;60.10;;;;;;5014875;28;20420;-67
2022/06/27 02:00:59;;;;;;;1.70;1.52;;;25.30;60.00;;;;;;5014952;28;20397;-68
2022/06/27 02:03:25;;;;;;;1.80;1.70;;;25.30;60.00;;;;;;5015312;28;20388;-67
2022/06/27 02:05:54;;;;;;;2.00;1.80;;;25.30;60.00;;;;;;5015087;28;20400;-67
2022/06/27 02:08:25;;;;;;;1.70;1.50;;;25.30;60.00;;;;;;5014602;28;20436;-68
2022/06/27 02:10:50;;;;;;;2.00;1.60;;;25.30;60.10;;;;;;5014931;28;20495;-68
2022/06/27 02:13:16;;;;;;;1.65;1.52;;;25.30;60.00;;;;;;5015044;28;20400;-68
2022/06/27 02:16:05;;;;;;;2.67;1.77;;;25.30;60.10;;;;;;5015074;28;20438;-67
2022/06/27 02:18:32;;;;;;;2.00;1.67;;;25.30;60.10;;;;;;5014496;28;20385;-68
2022/06/27 02:20:58;;;;;;;1.92;1.70;;;25.30;60.10;;;;;;5050070;22;20421;-68
2022/06/27 02:23:24;;;;;;;2.33;1.60;;;25.30;60.10;;;;;;5054575;28;20382;-68
2022/06/27 02:25:50;;;;;;;1.77;1.67;;;25.30;60.10;;;;;;5036494;28;20397;-68
2022/06/27 02:28:17;;;;;;;2.42;1.70;;;25.30;60.10;;;;;;5035899;28;20464;-67
2022/06/27 02:30:44;;;;;;;1.90;1.50;;;25.30;60.00;;;;;;5054426;28;20409;-68
2022/06/27 02:33:09;;;;;;;1.60;1.50;;;25.30;60.00;;;;;;5054469;28;20450;-68
2022/06/27 02:35:36;;;;;;;2.30;1.70;;;25.30;60.10;;;;;;5054359;28;20741;-68
2022/06/27 02:38:03;;;;;;;2.50;1.70;;;25.30;60.10;;;;;;5054189;28;20888;-67
2022/06/27 02:40:29;;;;;;;1.73;1.63;;;25.30;60.10;;;;;;5053802;28;20412;-68
2022/06/27 02:42:57;;;;;;;2.00;1.65;;;25.30;60.10;;;;;;5054350;28;20397;-68
2022/06/27 02:45:25;;;;;;;1.80;1.70;;;25.30;60.10;;;;;;5054127;28;20396;-67
2022/06/27 02:47:54;;;;;;;2.00;1.77;;;25.30;60.20;;;;;;5053772;28;20497;-68
2022/06/27 02:50:22;;;;;;;2.25;1.70;;;25.20;60.10;;;;;;5053447;28;20447;-67
2022/06/27 02:52:54;;;;;;;1.88;1.67;;;25.20;60.00;;;;;;5054147;28;20482;-68
2022/06/27 02:55:26;;;;;;;2.10;1.63;;;25.20;60.10;;;;;;5054055;28;20378;-68
2022/06/27 02:58:09;;;;;;;2.03;1.70;;;25.30;60.10;;;;;;5053645;28;20397;-69
2022/06/27 03:00:38;;;;;;;2.05;1.70;;;25.30;60.20;;;;;;5053493;28;20481;-68
2022/06/27 03:03:06;;;;;;;2.42;1.60;;;25.20;60.10;;;;;;5053515;28;20472;-67
2022/06/27 03:05:32;;;;;;;1.85;1.65;;;25.20;60.10;;;;;;5035581;28;20393;-67
2022/06/27 03:07:58;;;;;;;2.30;1.70;;;25.30;60.10;;;;;;5035799;28;20421;-68
2022/06/27 03:10:24;;;;;;;2.42;1.80;;;25.20;60.20;;;;;;5053352;28;20382;-68
2022/06/27 03:12:50;;;;;;;3.17;1.80;;;25.20;60.60;;;;;;5053489;28;20429;-67
2022/06/27 03:15:15;;;;;;;2.25;1.90;;;25.20;62.20;;;;;;5053642;28;20386;-68
2022/06/27 03:17:41;;;;;;;2.57;1.80;;;25.30;62.90;;;;;;5053577;28;20400;-67
2022/06/27 03:20:07;;;;;;;3.35;1.90;;;25.30;61.40;;;;;;5053560;28;20423;-67
2022/06/27 03:22:33;;;;;;;3.83;2.38;;;25.30;61.30;;;;;;5052711;28;20411;-67
2022/06/27 03:24:59;;;;;;;3.53;2.30;;;25.30;62.00;;;;;;5053315;28;20745;-67
2022/06/27 03:27:24;;;;;;;4.20;2.50;;;25.30;62.70;;;;;;5035371;28;20420;-67
2022/06/27 03:29:50;;;;;;;5.40;2.88;;;25.30;61.10;;;;;;5053283;28;20428;-67
2022/06/27 03:32:15;;;;;;;4.78;2.90;;;25.30;62.40;;;;;;5052976;28;20802;-67
2022/06/27 03:34:41;;;;;;;4.63;2.50;;;25.30;61.70;;;;;;5035294;28;20806;-66
2022/06/27 03:37:08;;;;;;;3.83;2.42;;;25.30;61.30;;;;;;5053295;28;20431;-67
2022/06/27 03:39:33;;;;;;;6.53;2.58;;;25.30;61.00;;;;;;5035721;28;20394;-67
2022/06/27 03:41:59;;;;;;;4.80;2.60;;;25.30;61.00;;;;;;5052950;28;20404;-66
2022/06/27 03:44:25;;;;;;;6.60;2.80;;;25.30;61.00;;;;;;5052518;28;20393;-67
2022/06/27 03:46:51;;;;;;;5.97;3.00;;;25.30;61.00;;;;;;5052699;28;20463;-67
2022/06/27 03:52:00;;;;;;;6.70;3.10;;;25.20;60.70;;;;;;5052866;28;20531;-67
2022/06/27 03:54:26;;;;;;;6.30;2.63;;;25.20;60.50;;;;;;5052300;28;20468;-67
2022/06/27 03:56:53;;;;;;;4.40;2.90;;;25.20;60.70;;;;;;5034596;28;20410;-67
2022/06/27 03:59:18;;;;;;;5.22;2.60;;;25.20;60.30;;;;;;5052673;28;20439;-67
2022/06/27 04:01:45;;;;;;;4.87;2.60;;;25.20;60.20;;;;;;5034271;28;20817;-67
2022/06/27 04:04:11;;;;;;;5.40;2.60;;;25.20;60.10;;;;;;5052630;28;20862;-67
2022/06/27 04:06:37;;;;;;;4.27;2.70;;;25.20;59.90;;;;;;5052037;28;20416;-67
2022/06/27 04:09:02;;;;;;;4.25;2.60;;;25.20;59.90;;;;;;5034393;28;20456;-68
2022/06/27 04:11:28;;;;;;;6.10;2.80;;;25.10;59.70;;;;;;5052178;28;20507;-67
2022/06/27 04:13:54;;;;;;;6.53;2.75;;;25.10;59.40;;;;;;5054359;28;20496;-68
2022/06/27 04:16:19;;;;;;;7.05;2.65;;;25.10;59.40;;;;;;5034349;28;20407;-68
2022/06/27 04:18:45;;;;;;;10.10;2.87;;;25.10;59.60;;;;;;5033765;28;20398;-67
2022/06/27 04:21:11;;;;;;;6.68;2.80;;;25.10;59.60;;;;;;5034166;28;20410;-67
2022/06/27 04:23:36;;;;;;;6.50;2.78;;;25.10;59.40;;;;;;5052380;28;20386;-67
2022/06/27 04:26:02;;;;;;;6.47;2.70;;;25.10;59.60;;;;;;5052104;28;20777;-67
2022/06/27 04:28:27;;;;;;;5.75;2.55;;;25.10;59.50;;;;;;5033959;28;20431;-67
2022/06/27 04:30:53;;;;;;;5.30;2.63;;;25.10;59.50;;;;;;5052091;28;20854;-67
2022/06/27 04:33:19;;;;;;;6.00;2.70;;;25.00;59.40;;;;;;5052020;28;20900;-67
2022/06/27 04:35:46;;;;;;;4.70;2.60;;;25.00;59.50;;;;;;5051967;28;20385;-68
2022/06/27 04:38:13;;;;;;;5.50;2.45;;;25.00;59.60;;;;;;5052043;28;20429;-68
2022/06/27 04:40:38;;;;;;;5.43;3.00;;;25.10;59.80;;;;;;5051411;28;20389;-67
2022/06/27 04:43:04;;;;;;;5.40;2.85;;;25.10;60.60;;;;;;5051812;28;20404;-68
2022/06/27 04:45:32;;;;;;;7.47;2.80;;;25.10;61.30;;;;;;5051824;28;20439;-68
2022/06/27 04:47:58;;;;;;;6.03;3.13;;;25.10;61.20;;;;;;5051727;28;20448;-68
2022/06/27 04:50:24;;;;;;;5.75;2.80;;;25.10;61.10;;;;;;5051682;28;20389;-67
2022/06/27 04:52:51;;;;;;;7.50;2.70;;;25.10;61.00;;;;;;5051982;28;20470;-68
2022/06/27 04:55:17;;;;;;;6.45;2.55;;;25.20;60.90;;;;;;5051737;28;20381;-68
2022/06/27 04:57:46;;;;;;;3.65;2.50;;;25.10;60.80;;;;;;5031823;28;20443;-67
2022/06/27 05:00:14;;;;;;;6.10;2.60;;;25.20;60.50;;;;;;5031411;28;20882;-68
2022/06/27 05:02:40;;;;;;;4.25;2.45;;;25.20;60.40;;;;;;5030943;28;20422;-67
2022/06/27 05:05:07;;;;;;;5.40;2.50;;;25.10;60.30;;;;;;5031455;28;20395;-67
2022/06/27 05:07:33;;;;;;;3.45;2.15;;;25.20;60.60;;;;;;5031431;28;20779;-67
2022/06/27 05:09:59;;;;;;;4.85;2.60;;;25.20;60.60;;;;;;5040213;28;20394;-67
2022/06/27 05:12:26;;;;;;;5.78;2.67;;;25.10;60.50;;;;;;5025228;28;20409;-67
2022/06/27 05:14:53;;;;;;;4.00;2.47;;;25.20;60.50;;;;;;5051119;28;20418;-68
2022/06/27 05:17:20;;;;;;;4.07;2.42;;;25.20;60.90;;;;;;5051491;28;20385;-67
2022/06/27 05:19:45;;;;;;;4.72;2.20;;;25.20;60.80;;;;;;5051205;28;20385;-67
2022/06/27 05:22:11;;;;;;;5.47;2.57;;;25.20;60.90;;;;;;5051272;28;20433;-67
2022/06/27 05:24:37;;;;;;;5.50;2.20;;;25.10;60.60;;;;;;5051051;28;20439;-67
2022/06/27 05:27:03;;;;;;;4.07;2.35;;;25.20;60.50;;;;;;5050653;28;20904;-67
2022/06/27 05:29:28;;;;;;;2.70;2.10;;;25.10;60.70;;;;;;5051082;28;20382;-67
2022/06/27 05:31:54;;;;;;;3.80;2.20;;;25.20;60.60;;;;;;5050942;28;20389;-67
2022/06/27 05:34:21;;;;;;;3.65;2.20;;;25.20;60.70;;;;;;5050876;28;20378;-66
2022/06/27 05:36:47;;;;;;;3.40;2.30;;;25.20;60.70;;;;;;5033075;28;20806;-68
2022/06/27 05:39:13;;;;;;;4.15;2.20;;;25.20;60.40;;;;;;5051018;28;20428;-67
2022/06/27 05:41:41;;;;;;;3.35;2.30;;;25.20;60.40;;;;;;5050535;28;20403;-67
2022/06/27 05:44:06;;;;;;;3.35;1.98;;;25.20;61.10;;;;;;5050457;28;20389;-67
2022/06/27 05:46:32;;;;;;;3.58;2.15;;;25.20;60.60;;;;;;5036174;28;20407;-67
2022/06/27 05:49:00;;;;;;;2.90;2.03;;;25.10;60.50;;;;;;5031119;28;20875;-67
2022/06/27 05:51:27;;;;;;;3.72;2.10;;;25.10;60.50;;;;;;5031075;28;20406;-67
2022/06/27 05:53:52;;;;;;;2.47;1.90;;;25.10;60.50;;;;;;5030781;28;20399;-67
2022/06/27 05:56:18;;;;;;;3.30;2.20;;;25.20;60.70;;;;;;5013340;28;20410;-67
2022/06/27 05:58:44;;;;;;;2.80;2.20;;;25.20;60.60;;;;;;5030411;28;20395;-67
2022/06/27 06:01:10;;;;;;;3.45;2.10;;;25.20;60.60;;;;;;5030567;28;21089;-67
2022/06/27 06:03:37;;;;;;;3.55;2.25;;;25.20;60.60;;;;;;5031002;28;20471;-67
2022/06/27 06:06:04;;;;;;;3.80;2.10;;;25.20;60.60;;;;;;5031008;28;20916;-67
2022/06/27 06:08:31;;;;;;;2.95;1.80;;;25.20;60.50;;;;;;5013024;28;20762;-66
2022/06/27 06:10:57;;;;;;;3.38;2.20;;;25.20;60.60;;;;;;5030811;28;20867;-67
2022/06/27 06:13:24;;;;;;;2.55;2.10;;;25.20;60.50;;;;;;5013227;28;20395;-67
2022/06/27 06:15:50;;;;;;;3.72;2.00;;;25.20;60.70;;;;;;5030683;28;20449;-67
2022/06/27 06:18:17;;;;;;;3.50;2.10;;;25.20;60.50;;;;;;5030785;28;20402;-67
2022/06/27 06:20:43;;;;;;;2.55;2.08;;;25.20;60.50;;;;;;5029735;28;20744;-67
2022/06/27 06:23:08;;;;;;;2.72;1.90;;;25.20;60.50;;;;;;5030534;28;20391;-66
2022/06/27 06:25:34;;;;;;;3.77;2.10;;;25.30;60.50;;;;;;5033409;28;20402;-66
2022/06/27 06:28:04;;;;;;;3.10;2.03;;;25.20;60.40;;;;;;5016287;28;20847;-66
2022/06/27 06:30:33;;;;;;;2.50;2.10;;;25.30;60.50;;;;;;5034213;28;20383;-67
2022/06/27 06:33:05;;;;;;;2.88;2.22;;;25.20;60.40;;;;;;5034194;28;20448;-67
2022/06/27 06:35:33;;;;;;;2.97;2.20;;;25.30;60.40;;;;;;5034438;28;20437;-67
2022/06/27 06:38:02;;;;;;;3.00;2.00;;;25.30;60.40;;;;;;5034125;28;20898;-66
2022/06/27 06:40:29;;;;;;;2.40;1.92;;;25.30;60.40;;;;;;5034043;28;20387;-65
2022/06/27 06:42:55;;;;;;;2.10;1.90;;;25.30;60.40;;;;;;5033853;28;20414;-67
2022/06/27 06:45:21;;;;;;;2.75;2.17;;;25.30;60.30;;;;;;5034545;28;20902;-67
2022/06/27 06:47:49;;;;;;;2.95;2.38;;;25.30;60.30;;;;;;5033612;28;20499;-67
2022/06/27 06:50:19;;;;;;;2.55;2.20;;;25.30;60.30;;;;;;5033796;28;20423;-66
2022/06/27 06:52:52;;;;;;;2.85;2.55;;;25.30;60.30;;;;;;5033363;28;20441;-67
2022/06/27 06:55:21;;;;;;;3.75;2.30;;;25.30;60.20;;;;;;5033870;28;20419;-67
2022/06/27 06:57:48;;;;;;;2.20;2.00;;;25.30;60.20;;;;;;5033779;28;20406;-67
2022/06/27 07:00:15;;;;;;;2.28;2.08;;;25.30;60.20;;;;;;5033479;28;20399;-66
2022/06/27 07:02:40;;;;;;;2.45;2.20;;;25.30;60.20;;;;;;5015589;28;20490;-66
2022/06/27 07:05:11;;;;;;;2.92;2.10;;;25.30;60.20;;;;;;5033828;28;20463;-66
2022/06/27 07:07:44;;;;;;;2.85;2.00;;;25.30;60.20;;;;;;5033545;28;20463;-67
2022/06/27 07:10:11;;;;;;;2.08;1.88;;;25.30;60.00;;;;;;5015868;28;20423;-67
2022/06/27 07:12:38;;;;;;;2.78;2.05;;;25.30;60.10;;;;;;5033057;28;20391;-67
2022/06/27 07:15:09;;;;;;;2.53;2.05;;;25.30;60.10;;;;;;5015668;28;20391;-67
2022/06/27 07:17:48;;;;;;;2.77;1.97;;;25.30;60.10;;;;;;5033585;28;20478;-66
2022/06/27 07:20:18;;;;;;;2.10;1.90;;;25.30;60.10;;;;;;5033310;28;20740;-67
2022/06/27 07:22:48;;;;;;;2.10;1.90;;;25.30;60.20;;;;;;5032771;28;20414;-67
2022/06/27 07:25:14;;;;;;;2.25;1.92;;;25.30;60.20;;;;;;5015446;28;20395;-67
2022/06/27 07:27:42;;;;;;;2.63;2.10;;;25.30;60.20;;;;;;5032879;28;20415;-67
2022/06/27 07:30:12;;;;;;;2.60;2.20;;;25.30;60.00;;;;;;5032911;28;20769;-67
2022/06/27 07:32:39;;;;;;;3.30;2.10;;;25.30;60.10;;;;;;5032228;28;20391;-67
2022/06/27 07:35:07;;;;;;;2.75;2.10;;;25.30;60.30;;;;;;5015624;28;20386;-67
2022/06/27 07:37:34;;;;;;;3.17;2.00;;;25.30;60.10;;;;;;5016611;28;20391;-67
2022/06/27 07:39:59;;;;;;;3.15;1.92;;;25.30;60.00;;;;;;5032773;28;20430;-67
2022/06/27 07:42:25;;;;;;;3.28;2.00;;;25.30;60.00;;;;;;5033366;28;20844;-67
2022/06/27 07:44:51;;;;;;;2.90;1.90;;;25.30;60.00;;;;;;5032382;28;20436;-66
2022/06/27 07:47:17;;;;;;;2.28;1.80;;;25.30;60.00;;;;;;5032897;28;20415;-66
2022/06/27 07:49:42;;;;;;;2.33;2.10;;;25.30;60.00;;;;;;5015104;28;20398;-67
2022/06/27 07:52:08;;;;;;;2.85;2.00;;;25.30;59.90;;;;;;5032951;28;20477;-67
2022/06/27 07:54:34;;;;;;;2.53;2.10;;;25.30;60.70;;;;;;5032608;28;20867;-67
2022/06/27 07:57:00;;;;;;;2.70;2.00;;;25.40;60.20;;;;;;5032529;28;20406;-67
2022/06/27 07:59:26;;;;;;;2.30;2.00;;;25.30;60.30;;;;;;5032551;28;20492;-66
2022/06/27 08:01:52;;;;;;;3.35;1.85;;;25.40;60.70;;;;;;5032367;28;20391;-65
2022/06/27 08:04:19;;;;;;;2.43;1.80;;;25.40;60.60;;;;;;5032721;28;20483;-66
2022/06/27 08:06:49;;;;;;;3.80;2.10;;;25.40;60.60;;;;;;5032013;28;20485;-66
2022/06/27 08:09:15;;;;;;;3.20;2.20;;;25.50;61.00;;;;;;5032555;28;20457;-67
2022/06/27 08:11:43;;;;;;;4.97;2.30;;;25.50;60.90;;;;;;5032281;28;20399;-67
2022/06/27 08:14:16;;;;;;;11.93;4.53;;;25.50;61.00;;;;;;5032386;28;20813;-67
2022/06/27 08:16:42;;;;;;;11.70;5.43;;;25.50;61.10;;;;;;5032015;28;20391;-66
2022/06/27 08:19:09;;;;;;;32.13;12.57;;;25.60;61.50;;;;;;5014458;28;20387;-66
2022/06/27 08:21:37;;;;;;;20.25;8.98;;;25.60;61.50;;;;;;5032188;28;20415;-67
2022/06/27 08:24:07;;;;;;;17.65;8.75;;;25.50;61.50;;;;;;5032108;28;20387;-66
2022/06/27 08:26:35;;;;;;;20.83;9.38;;;25.60;61.70;;;;;;5032560;28;20403;-65
2022/06/27 08:29:02;;;;;;;23.30;10.35;;;25.60;62.00;;;;;;5031937;28;20819;-67
2022/06/27 08:31:30;;;;;;;23.73;10.13;;;25.60;62.60;;;;;;5014259;28;20387;-67
2022/06/27 08:34:00;;;;;;;25.40;12.97;;;25.60;62.50;;;;;;5031629;28;20402;-67
2022/06/27 08:36:30;;;;;;;22.73;10.45;;;25.70;62.70;;;;;;5032090;28;20471;-67
2022/06/27 08:38:57;;;;;;;18.87;8.73;;;25.70;62.30;;;;;;5031346;28;20474;-67
2022/06/27 08:41:24;;;;;;;14.25;7.00;;;25.60;61.70;;;;;;5032036;28;20388;-67
2022/06/27 08:43:55;;;;;;;12.52;6.53;;;25.60;61.70;;;;;;5031743;28;20495;-67
2022/06/27 08:46:22;;;;;;;13.63;5.93;;;25.60;61.40;;;;;;5031708;28;20380;-66
2022/06/27 08:48:50;;;;;;;11.55;5.70;;;25.60;61.20;;;;;;5012960;28;20928;-66
2022/06/27 08:51:16;;;;;;;12.17;5.73;;;25.60;61.00;;;;;;5031422;28;20451;-67
2022/06/27 08:53:44;;;;;;;11.07;5.13;;;25.60;60.50;;;;;;5031163;28;20395;-67
2022/06/27 08:56:13;;;;;;;10.40;4.97;;;25.60;60.60;;;;;;5031514;28;20402;-67
2022/06/27 08:58:40;;;;;;;10.10;5.13;;;25.60;60.50;;;;;;5031140;28;20914;-66
2022/06/27 09:01:07;;;;;;;10.20;4.85;;;25.60;60.40;;;;;;5031302;28;20391;-67
2022/06/27 09:03:34;;;;;;;8.85;4.53;;;25.60;60.30;;;;;;5031095;28;20394;-67
2022/06/27 09:06:08;;;;;;;8.70;4.55;;;25.60;60.40;;;;;;5030159;28;20438;-67
2022/06/27 09:08:52;;;;;;;7.60;4.13;;;25.60;60.30;;;;;;5031688;28;20419;-66
2022/06/27 09:11:27;;;;;;;7.43;4.17;;;25.60;60.20;;;;;;5031295;28;20387;-67
2022/06/27 09:13:52;;;;;;;7.90;4.20;;;25.60;60.20;;;;;;5031034;28;20391;-67
2022/06/27 09:16:18;;;;;;;7.07;4.03;;;25.60;60.20;;;;;;5031089;28;20383;-67
2022/06/27 09:18:44;;;;;;;6.85;3.60;;;25.60;60.20;;;;;;5030832;28;20828;-66
2022/06/27 09:21:12;;;;;;;5.25;3.60;;;25.60;60.20;;;;;;5031096;28;20468;-67
2022/06/27 09:23:49;;;;;;;6.32;3.63;;;25.60;60.00;;;;;;5031095;28;20485;-66
2022/06/27 09:26:23;;;;;;;6.10;3.78;;;25.60;60.00;;;;;;5031117;28;20392;-67
2022/06/27 09:28:51;;;;;;;6.40;3.88;;;25.60;59.90;;;;;;5030826;28;20403;-66
2022/06/27 09:31:27;;;;;;;5.75;3.67;;;25.60;60.00;;;;;;5031081;28;20449;-67
2022/06/27 09:34:01;;;;;;;5.63;3.80;;;25.60;60.00;;;;;;5030546;28;20902;-66
2022/06/27 09:36:28;;;;;;;6.90;3.80;;;25.60;60.00;;;;;;5013379;28;20891;-68
2022/06/27 09:38:56;;;;;;;6.72;3.80;;;25.60;59.90;;;;;;5030345;28;20395;-66
2022/06/27 09:41:26;;;;;;;5.68;3.65;;;25.60;60.00;;;;;;5031020;28;20386;-67
2022/06/27 09:43:52;;;;;;;5.63;3.72;;;25.60;59.90;;;;;;5030773;28;20478;-67
2022/06/27 09:46:18;;;;;;;5.15;3.33;;;25.60;59.90;;;;;;5030623;28;20457;-67
2022/06/27 09:48:45;;;;;;;5.40;3.72;;;25.60;59.90;;;;;;5030541;28;20398;-67
2022/06/27 09:51:16;;;;;;;5.78;3.78;;;25.60;59.90;;;;;;5030905;28;20466;-67
2022/06/27 09:53:49;;;;;;;4.78;3.28;;;25.60;59.90;;;;;;5030812;28;20405;-67
2022/06/27 09:56:18;;;;;;;5.45;3.55;;;25.60;59.80;;;;;;5013213;28;20413;-67
2022/06/27 09:58:45;;;;;;;5.50;3.47;;;25.60;59.90;;;;;;5012818;28;20479;-67
2022/06/27 10:01:11;;;;;;;4.60;3.17;;;25.60;59.80;;;;;;5022856;28;20393;-67
2022/06/27 10:03:37;;;;;;;5.88;3.22;;;25.60;59.90;;;;;;5038463;28;20389;-67
2022/06/27 10:06:05;;;;;;;5.32;3.13;;;25.60;59.90;;;;;;5054403;28;20446;-68
2022/06/27 10:08:32;;;;;;;4.82;3.30;;;25.60;59.90;;;;;;5036719;28;20424;-68
2022/06/27 10:11:06;;;;;;;4.78;3.20;;;25.60;59.90;;;;;;5050964;28;20393;-67
2022/06/27 10:13:33;;;;;;;6.25;3.17;;;25.60;59.90;;;;;;5054586;28;20398;-68
2022/06/27 10:16:04;;;;;;;5.30;3.30;;;25.60;59.90;;;;;;5054578;28;20944;-68
2022/06/27 10:18:51;;;;;;;5.47;3.10;;;25.60;60.00;;;;;;5020429;28;20534;-67
2022/06/27 10:21:28;;;;;;;5.13;3.28;;;25.60;59.90;;;;;;5034544;28;20450;-68
2022/06/27 10:24:18;;;;;;;4.47;3.13;;;25.60;59.90;;;;;;5033902;28;20891;-68
2022/06/27 10:26:48;;;;;;;4.97;3.22;;;25.60;59.90;;;;;;5034080;28;20419;-67
2022/06/27 10:29:37;;;;;;;5.65;3.38;;;25.60;59.90;;;;;;5034262;28;20425;-68
2022/06/27 10:32:05;;;;;;;4.97;3.03;;;25.60;59.80;;;;;;5016561;28;20445;-67
2022/06/27 10:34:40;;;;;;;6.17;3.00;;;25.60;60.20;;;;;;5036072;28;20429;-68
2022/06/27 10:37:26;;;;;;;4.93;2.95;;;25.60;60.30;;;;;;5023915;28;20830;-67
2022/06/27 10:40:21;;;;;;;4.78;3.20;;;25.60;60.60;;;;;;5036036;28;20383;-67
2022/06/27 10:42:50;;;;;;;5.07;3.22;;;25.60;60.50;;;;;;5042508;28;20390;-67
2022/06/27 10:45:28;;;;;;;4.63;3.20;;;25.70;60.60;;;;;;5041717;28;20392;-68
2022/06/27 10:47:57;;;;;;;4.28;3.03;;;25.70;60.70;;;;;;5043335;28;20985;-68
2022/06/27 10:50:24;;;;;;;3.33;2.80;;;25.70;60.40;;;;;;5025651;28;20480;-68
2022/06/27 10:53:10;;;;;;;4.43;2.67;;;25.70;60.40;;;;;;5041752;28;20400;-68
2022/06/27 10:55:36;;;;;;;4.47;2.90;;;25.70;60.40;;;;;;5043185;28;20383;-68
2022/06/27 10:58:22;;;;;;;3.90;2.88;;;25.70;60.30;;;;;;5043448;28;20468;-67
2022/06/27 11:00:49;;;;;;;4.80;2.75;;;25.70;60.20;;;;;;5041409;28;20383;-67
2022/06/27 11:03:21;;;;;;;3.85;2.90;;;25.70;60.10;;;;;;5043358;28;20802;-66
2022/06/27 11:06:04;;;;;;;3.92;2.83;;;25.70;59.80;;;;;;5040497;28;20390;-68
2022/06/27 11:08:33;;;;;;;3.38;2.70;;;25.70;59.90;;;;;;5024530;28;20415;-67
2022/06/27 11:10:59;;;;;;;3.97;2.97;;;25.70;59.90;;;;;;5038884;28;20884;-67
2022/06/27 11:13:38;;;;;;;4.30;3.25;;;25.70;59.80;;;;;;5041547;28;20403;-67
2022/06/27 11:16:05;;;;;;;4.07;3.00;;;25.70;59.80;;;;;;5040806;28;21006;-65
2022/06/27 11:18:41;;;;;;;3.80;2.78;;;25.70;59.70;;;;;;5041926;28;20406;-67
2022/06/27 11:21:09;;;;;;;4.63;3.10;;;25.70;60.00;;;;;;5041488;28;20399;-68
2022/06/27 11:23:57;;;;;;;4.60;2.90;;;25.70;60.00;;;;;;5040952;28;20889;-67
2022/06/27 11:26:35;;;;;;;5.55;3.28;;;25.70;61.00;;;;;;5038885;28;20398;-67
2022/06/27 11:32:13;;;;;;;4.70;3.10;;;25.80;62.20;;;;;;5041819;28;20443;-67
2022/06/27 11:34:53;;;;;;;3.88;2.95;;;25.80;61.20;;;;;;5039112;28;20417;-67
2022/06/27 11:37:21;;;;;;;3.83;2.70;;;25.80;60.50;;;;;;5041124;28;20737;-67
2022/06/27 11:40:07;;;;;;;3.55;2.70;;;25.80;60.50;;;;;;5025804;28;20401;-67
2022/06/27 11:42:40;;;;;;;3.75;2.65;;;25.80;60.50;;;;;;5023966;28;20429;-68
2022/06/27 11:45:12;;;;;;;4.10;2.95;;;25.80;60.10;;;;;;5041012;28;20383;-67
2022/06/27 11:47:43;;;;;;;3.63;2.85;;;25.80;60.10;;;;;;5040395;28;20410;-68
2022/06/27 11:50:17;;;;;;;4.47;3.10;;;25.80;60.40;;;;;;5043058;28;20846;-67
2022/06/27 11:52:47;;;;;;;3.27;2.70;;;25.80;60.00;;;;;;5042084;28;21097;-66
2022/06/27 11:55:22;;;;;;;4.10;2.85;;;25.80;60.00;;;;;;5041653;28;20396;-67
2022/06/27 11:57:54;;;;;;;3.55;2.88;;;25.80;59.70;;;;;;5040980;28;20453;-68
2022/06/27 12:00:31;;;;;;;4.57;2.78;;;25.80;59.70;;;;;;5039515;28;20432;-67
2022/06/27 12:03:11;;;;;;;3.80;2.60;;;25.80;60.30;;;;;;5041661;28;20426;-68
2022/06/27 12:05:42;;;;;;;3.38;2.85;;;25.80;59.70;;;;;;5024543;28;20442;-67
2022/06/27 12:08:10;;;;;;;3.95;2.70;;;25.80;59.70;;;;;;5040632;28;20939;-68
2022/06/27 12:10:37;;;;;;;3.60;2.70;;;25.80;59.70;;;;;;5043057;28;20925;-70
2022/06/27 12:13:11;;;;;;;3.80;2.60;;;25.90;59.70;;;;;;5039499;28;20380;-68
2022/06/27 12:15:38;;;;;;;4.47;2.70;;;25.80;59.70;;;;;;5040190;28;20417;-67
2022/06/27 12:18:06;;;;;;;3.95;3.03;;;25.90;59.70;;;;;;5040095;28;20446;-67
2022/06/27 12:20:34;;;;;;;3.13;2.63;;;25.80;59.60;;;;;;5040733;28;20439;-68
2022/06/27 12:23:00;;;;;;;3.55;2.60;;;25.90;60.40;;;;;;5019423;28;20419;-67
2022/06/27 12:25:27;;;;;;;3.90;2.80;;;25.90;59.70;;;;;;5020754;28;20442;-67
2022/06/27 12:27:53;;;;;;;3.25;2.88;;;25.90;59.60;;;;;;5020402;28;20422;-68
2022/06/27 12:30:19;;;;;;;3.55;3.10;;;25.90;59.60;;;;;;5021896;28;20742;-67
2022/06/27 12:32:45;;;;;;;2.80;2.60;;;25.90;59.60;;;;;;5021572;28;20396;-68
2022/06/27 12:35:11;;;;;;;3.30;2.50;;;25.90;59.50;;;;;;5017954;28;20403;-67
2022/06/27 12:37:38;;;;;;;4.00;2.75;;;25.90;59.50;;;;;;5021625;28;21701;-68
2022/06/27 12:40:06;;;;;;;3.25;2.58;;;25.90;59.50;;;;;;5019095;28;20387;-67
2022/06/27 12:42:32;;;;;;;4.22;2.70;;;25.90;59.50;;;;;;5020861;28;20492;-68
2022/06/27 12:44:57;;;;;;;3.28;2.78;;;25.90;59.60;;;;;;5019197;28;20397;-67
2022/06/27 12:47:23;;;;;;;3.35;2.60;;;25.90;59.40;;;;;;5021496;28;20906;-68
2022/06/27 12:49:49;;;;;;;3.38;2.53;;;25.90;59.40;;;;;;5020438;28;20447;-68
2022/06/27 12:52:16;;;;;;;2.87;2.50;;;25.90;59.40;;;;;;5019862;28;20434;-68
2022/06/27 12:54:42;;;;;;;4.10;2.90;;;25.90;59.40;;;;;;5021703;28;20391;-67
2022/06/27 12:57:08;;;;;;;3.35;2.70;;;25.90;59.40;;;;;;5019772;28;20393;-67
2022/06/27 12:59:34;;;;;;;4.80;2.70;;;25.90;59.30;;;;;;5020019;28;20391;-67